createdAt,value
2023-12-08T00:00:55.459Z,96392.16
2023-12-08T00:05:57.931Z,96392.06
2023-12-08T00:11:00.885Z,96391.06
2023-12-08T00:16:04.495Z,96401.38
2023-12-08T00:21:07.754Z,96406.69
2023-12-08T00:26:12.182Z,96407.44
2023-12-08T00:31:15.069Z,96401.47
2023-12-08T00:36:18.826Z,96412.47
2023-12-08T00:41:21.668Z,96411.66
2023-12-08T00:46:24.383Z,96404.75
2023-12-08T00:51:27.251Z,96415.59
2023-12-08T00:56:30.214Z,96411.34
2023-12-08T01:01:33.210Z,96406.50
2023-12-08T01:06:35.600Z,96424.13
2023-12-08T01:11:38.648Z,96409.47
2023-12-08T01:16:42.761Z,96403.34
2023-12-08T01:21:45.601Z,96401.28
2023-12-08T01:26:48.587Z,96391.66
2023-12-08T01:31:51.062Z,96388.91
2023-12-08T01:36:54.188Z,96397.16
2023-12-08T01:41:57.032Z,96378.22
2023-12-08T01:46:59.905Z,96377.53
2023-12-08T01:52:04.580Z,96392.50
2023-12-08T01:57:07.472Z,96381.47
2023-12-08T02:02:11.082Z,96369.31
2023-12-08T02:07:14.860Z,96385.38
2023-12-08T02:12:18.029Z,96389.63
2023-12-08T02:17:24.990Z,96388.56
2023-12-08T02:22:28.043Z,96396.09
2023-12-08T02:27:31.810Z,96400.47
2023-12-08T02:32:54.279Z,96403.69
2023-12-08T02:38:00.949Z,96401.97
2023-12-08T02:43:04.758Z,96390.94
2023-12-08T02:48:07.401Z,96391.66
2023-12-08T02:53:10.251Z,96391.91
2023-12-08T02:58:13.193Z,96390.16
2023-12-08T03:03:16.249Z,96386.81
2023-12-08T03:08:19.104Z,96382.41
2023-12-08T03:13:22.128Z,96373.03
2023-12-08T03:18:24.951Z,96383.91
2023-12-08T03:23:27.871Z,96380.34
2023-12-08T03:28:30.222Z,96386.41
2023-12-08T03:33:33.112Z,96390.78
2023-12-08T03:38:36.050Z,96377.13
2023-12-08T03:43:39.563Z,96371.09
2023-12-08T03:48:42.138Z,96381.19
2023-12-08T03:53:45.061Z,96388.78
2023-12-08T03:58:47.358Z,96392.09
2023-12-08T04:03:50.395Z,96391.34
2023-12-08T04:08:53.263Z,96391.91
2023-12-08T04:13:56.218Z,96385.25
2023-12-08T04:18:59.099Z,96387.72
2023-12-08T04:24:01.926Z,96406.84
2023-12-08T04:29:04.742Z,96399.13
2023-12-08T04:34:07.632Z,96386.81
2023-12-08T04:39:10.631Z,96399.88
2023-12-08T04:44:13.762Z,96398.91
2023-12-08T04:49:16.204Z,96406.56
2023-12-08T04:54:19.025Z,96396.50
2023-12-08T04:59:21.867Z,96395.03
2023-12-08T05:04:24.809Z,96394.28
2023-12-08T05:09:28.590Z,96395.19
2023-12-08T05:14:31.755Z,96396.31
2023-12-08T05:19:34.696Z,96404.59
2023-12-08T05:24:37.495Z,96415.59
2023-12-08T05:29:40.417Z,96410.59
2023-12-08T05:34:43.209Z,96420.13
2023-12-08T05:39:45.898Z,96423.72
2023-12-08T05:44:48.328Z,96430.47
2023-12-08T05:49:51.237Z,96423.50
2023-12-08T05:54:53.544Z,96427.97
2023-12-08T06:00:12.646Z,96431.88
2023-12-08T06:05:16.787Z,96418.22
2023-12-08T06:10:19.511Z,96432.16
2023-12-08T06:15:22.199Z,96423.56
2023-12-08T06:20:25.047Z,96429.69
2023-12-08T06:25:27.345Z,96429.31
2023-12-08T06:30:29.669Z,96429.91
2023-12-08T06:35:31.853Z,96433.47
2023-12-08T06:40:34.777Z,96454.69
2023-12-08T06:45:37.771Z,96459.06
2023-12-08T06:50:40.651Z,96469.50
2023-12-08T06:55:43.647Z,96459.88
2023-12-08T07:00:46.501Z,96480.72
2023-12-08T07:05:49.707Z,96463.47
2023-12-08T07:10:52.565Z,96486.94
2023-12-08T07:15:55.587Z,96485.31
2023-12-08T07:20:58.496Z,96490.44
2023-12-08T07:26:02.196Z,96483.47
2023-12-08T07:31:05.508Z,96479.84
2023-12-08T07:36:08.654Z,96495.25
2023-12-08T07:41:11.481Z,96482.53
2023-12-08T07:46:14.398Z,96480.91
2023-12-08T07:51:17.295Z,96501.44
2023-12-08T07:56:20.194Z,96506.31
2023-12-08T08:01:23.298Z,96490.19
2023-12-08T08:06:26.800Z,96492.66
2023-12-08T08:11:29.679Z,96503.53
2023-12-08T08:16:32.620Z,96509.50
2023-12-08T08:21:35.083Z,96491.78
2023-12-08T08:26:37.485Z,96508.75
2023-12-08T08:31:41.034Z,96491.91
2023-12-08T08:36:43.922Z,96506.09
2023-12-08T08:41:47.139Z,96505.50
2023-12-08T08:46:49.916Z,96495.72
2023-12-08T08:51:52.749Z,96488.03
2023-12-08T08:56:55.541Z,96492.13
2023-12-08T09:01:58.282Z,96483.75
2023-12-08T09:07:01.523Z,96487.19
2023-12-08T09:12:04.944Z,96475.13
2023-12-08T09:17:07.565Z,96467.09
2023-12-08T09:22:10.299Z,96461.03
2023-12-08T09:27:13.230Z,96459.28
2023-12-08T09:32:16.380Z,96457.97
2023-12-08T09:37:27.181Z,96453.13
2023-12-08T09:42:44.469Z,96443.94
2023-12-08T09:47:52.299Z,96429.72
2023-12-08T09:52:58.379Z,96416.28
2023-12-08T09:58:03.248Z,96409.47
2023-12-08T10:03:06.285Z,96390.06
2023-12-08T10:08:11.497Z,96400.06
2023-12-08T10:13:14.852Z,96375.13
2023-12-08T10:18:28.044Z,96389.13
2023-12-08T10:23:31.046Z,96390.38
2023-12-08T10:28:36.897Z,96391.06
2023-12-08T10:33:42.917Z,96385.41
2023-12-08T10:38:46.723Z,96393.94
2023-12-08T10:43:49.122Z,96386.75
2023-12-08T10:48:52.566Z,96377.06
2023-12-08T10:53:56.962Z,96366.84
2023-12-08T10:59:04.657Z,96368.50
2023-12-08T11:04:11.836Z,96348.00
2023-12-08T11:09:18.003Z,96354.91
2023-12-08T11:14:39.497Z,96348.16
2023-12-08T11:19:42.910Z,96337.91
2023-12-08T11:24:46.194Z,96323.31
2023-12-08T11:30:06.252Z,96332.59
2023-12-08T11:35:14.084Z,96337.13
2023-12-08T11:40:17.112Z,96316.34
2023-12-08T11:45:20.298Z,96329.16
2023-12-08T11:50:23.235Z,96309.75
2023-12-08T11:55:33.062Z,96302.84
2023-12-08T12:00:40.548Z,96307.94
2023-12-08T12:05:43.589Z,96308.13
2023-12-08T12:10:47.855Z,96310.25
2023-12-08T12:15:50.667Z,96307.03
2023-12-08T12:20:53.452Z,96307.88
2023-12-08T12:25:56.426Z,96302.91
2023-12-08T12:31:01.790Z,96311.38
2023-12-08T12:36:06.681Z,96319.78
2023-12-08T12:41:22.959Z,96308.13
2023-12-08T12:46:29.177Z,96316.63
2023-12-08T12:51:36.594Z,96323.44
2023-12-08T12:56:52.990Z,96317.06
2023-12-08T13:01:55.953Z,96328.22
2023-12-08T13:06:58.646Z,96324.63
2023-12-08T13:12:01.459Z,96334.25
2023-12-08T13:17:07.103Z,96340.63
2023-12-08T13:22:09.688Z,96322.97
2023-12-08T13:27:12.408Z,96330.47
2023-12-08T13:32:14.672Z,96328.25
2023-12-08T13:37:18.326Z,96346.16
2023-12-08T13:42:21.121Z,96345.88
2023-12-08T13:47:23.850Z,96340.09
2023-12-08T13:52:26.701Z,96349.47
2023-12-08T13:57:29.292Z,96360.06
2023-12-08T14:02:32.780Z,96357.78
2023-12-08T14:07:35.581Z,96350.03
2023-12-08T14:12:38.470Z,96364.97
2023-12-08T14:17:41.470Z,96357.88
2023-12-08T14:22:44.261Z,96373.16
2023-12-08T14:27:47.014Z,96373.06
2023-12-08T14:32:49.955Z,96368.38
2023-12-08T14:37:53.137Z,96379.44
2023-12-08T14:42:56.135Z,96393.66
2023-12-08T14:47:59.164Z,96380.19
2023-12-08T14:53:02.276Z,96375.31
2023-12-08T14:58:05.336Z,96385.72
2023-12-08T15:03:08.360Z,96382.28
2023-12-08T15:08:11.232Z,96389.38
2023-12-08T15:13:13.948Z,96395.22
2023-12-08T15:18:16.985Z,96385.25
2023-12-08T15:23:22.045Z,96395.31
2023-12-08T15:28:28.999Z,96399.28
2023-12-08T15:33:33.178Z,96404.34
2023-12-08T15:38:37.309Z,96417.53
2023-12-08T15:43:40.493Z,96420.91
2023-12-08T15:48:43.563Z,96404.22
2023-12-08T15:53:46.343Z,96426.56
2023-12-08T15:58:49.211Z,96429.22
2023-12-08T16:03:52.132Z,96426.00
2023-12-08T16:08:55.588Z,96436.94
2023-12-08T16:14:00.435Z,96430.53
2023-12-08T16:19:03.409Z,96438.66
2023-12-08T16:24:07.984Z,96442.25
2023-12-08T16:29:10.804Z,96453.47
2023-12-08T16:34:14.695Z,96403.13
2023-12-08T16:39:19.439Z,96418.19
2023-12-08T16:44:23.310Z,96404.94
2023-12-08T16:49:26.577Z,96420.41
2023-12-08T16:54:29.647Z,96416.78
2023-12-08T16:59:34.234Z,96426.44
2023-12-08T17:04:36.694Z,96419.09
2023-12-08T17:09:38.965Z,96436.19
2023-12-08T17:14:41.657Z,96452.91
2023-12-08T17:19:44.435Z,96450.75
2023-12-08T17:24:47.160Z,96465.56
2023-12-08T17:29:50.019Z,96459.00
2023-12-08T17:34:53.045Z,96474.34
2023-12-08T17:39:57.680Z,96468.97
2023-12-08T17:45:00.188Z,96476.78
2023-12-08T17:50:03.317Z,96478.91
2023-12-08T17:55:06.453Z,96483.09
2023-12-08T18:00:09.477Z,96484.31
2023-12-08T18:05:16.384Z,96476.56
2023-12-08T18:10:18.896Z,96484.38
2023-12-08T18:15:22.297Z,96476.84
2023-12-08T18:20:24.778Z,96475.97
2023-12-08T18:25:27.915Z,96483.53
2023-12-08T18:30:30.867Z,96490.22
2023-12-08T18:35:33.350Z,96483.34
2023-12-08T18:40:36.802Z,96455.03
2023-12-08T18:45:39.097Z,96471.19
2023-12-08T18:50:42.123Z,96472.78
2023-12-08T18:55:44.732Z,96453.06
2023-12-08T19:00:47.744Z,96436.72
2023-12-08T19:05:50.611Z,96465.75
2023-12-08T19:10:53.468Z,96452.34
2023-12-08T19:15:56.877Z,96475.44
2023-12-08T19:20:59.305Z,96448.91
2023-12-08T19:26:03.384Z,96474.38
2023-12-08T19:31:05.780Z,96459.09
2023-12-08T19:36:09.507Z,96469.06
2023-12-08T19:41:12.552Z,96469.91
2023-12-08T19:46:15.353Z,96460.59
2023-12-08T19:51:18.391Z,96472.44
2023-12-08T19:56:20.736Z,96468.97
2023-12-08T20:01:23.534Z,96471.50
2023-12-08T20:06:26.447Z,96457.97
2023-12-08T20:11:29.318Z,96476.41
2023-12-08T20:16:36.096Z,96456.50
2023-12-08T20:21:41.512Z,96468.28
2023-12-08T20:26:44.845Z,96464.53
2023-12-08T20:31:47.915Z,96433.38
2023-12-08T20:36:50.680Z,96448.94
2023-12-08T20:41:54.864Z,96460.03
2023-12-08T20:46:57.766Z,96456.03
2023-12-08T20:52:01.939Z,96454.09
2023-12-08T20:57:04.502Z,96486.66
2023-12-08T21:02:08.384Z,96469.41
2023-12-08T21:07:11.150Z,96469.13
2023-12-08T21:12:14.072Z,96488.13
2023-12-08T21:17:16.949Z,96480.44
2023-12-08T21:22:19.281Z,96481.75
2023-12-08T21:27:22.317Z,96474.75
2023-12-08T21:32:25.099Z,96495.97
2023-12-08T21:37:29.498Z,96466.97
2023-12-08T21:42:32.746Z,96482.16
2023-12-08T21:47:35.496Z,96479.94
2023-12-08T21:52:38.174Z,96481.34
2023-12-08T21:57:41.056Z,96495.72
2023-12-08T22:02:43.531Z,96501.25
2023-12-08T22:07:46.306Z,96490.84
2023-12-08T22:12:49.031Z,96496.00
2023-12-08T22:17:51.459Z,96464.13
2023-12-08T22:22:54.270Z,96474.34
2023-12-08T22:27:57.203Z,96480.22
2023-12-08T22:32:59.661Z,96468.56
2023-12-08T22:38:02.393Z,96466.84
2023-12-08T22:43:04.607Z,96463.47
2023-12-08T22:48:07.567Z,96466.72
2023-12-08T22:53:10.457Z,96440.66
2023-12-08T22:58:13.243Z,96461.19
2023-12-08T23:03:15.949Z,96467.94
2023-12-08T23:08:18.890Z,96477.72
2023-12-08T23:13:21.630Z,96472.44
2023-12-08T23:18:23.990Z,96468.22
2023-12-08T23:23:26.803Z,96477.47
2023-12-08T23:28:29.594Z,96470.88
2023-12-08T23:33:32.599Z,96464.06
2023-12-08T23:38:36.292Z,96460.38
2023-12-08T23:43:39.056Z,96474.16
2023-12-08T23:48:42.174Z,96474.97
2023-12-08T23:53:45.236Z,96464.00
2023-12-08T23:58:48.197Z,96461.19
